sensor_id;sensor_type;location;lat;lon;timestamp;P1;durP1;ratioP1;P2;durP2;ratioP2
41643;SDS011;44236;48.098;11.582;2024-03-08T00:01:09;7.50;;;4.35;;
41643;SDS011;44236;48.098;11.582;2024-03-08T00:03:35;6.18;;;3.70;;
41643;SDS011;44236;48.098;11.582;2024-03-08T00:06:01;7.10;;;4.20;;
41643;SDS011;44236;48.098;11.582;2024-03-08T00:08:27;7.35;;;4.55;;
41643;SDS011;44236;48.098;11.582;2024-03-08T00:10:53;6.53;;;3.60;;
41643;SDS011;44236;48.098;11.582;2024-03-08T00:13:19;6.15;;;3.97;;
41643;SDS011;44236;48.098;11.582;2024-03-08T00:15:44;7.45;;;3.92;;
41643;SDS011;44236;48.098;11.582;2024-03-08T00:18:10;6.15;;;3.85;;
41643;SDS011;44236;48.098;11.582;2024-03-08T00:20:36;6.53;;;4.15;;
41643;SDS011;44236;48.098;11.582;2024-03-08T00:23:02;7.70;;;4.10;;
41643;SDS011;44236;48.098;11.582;2024-03-08T00:25:27;6.95;;;3.97;;
41643;SDS011;44236;48.098;11.582;2024-03-08T00:27:53;7.32;;;4.15;;
41643;SDS011;44236;48.098;11.582;2024-03-08T00:30:22;6.13;;;3.53;;
41643;SDS011;44236;48.098;11.582;2024-03-08T00:32:48;6.85;;;4.10;;
41643;SDS011;44236;48.098;11.582;2024-03-08T00:35:14;9.63;;;4.15;;
41643;SDS011;44236;48.098;11.582;2024-03-08T00:37:40;5.63;;;3.45;;
41643;SDS011;44236;48.098;11.582;2024-03-08T00:40:12;5.85;;;3.45;;
41643;SDS011;44236;48.098;11.582;2024-03-08T00:42:37;6.90;;;4.22;;
41643;SDS011;44236;48.098;11.582;2024-03-08T00:45:06;6.63;;;3.90;;
41643;SDS011;44236;48.098;11.582;2024-03-08T00:47:33;5.88;;;3.78;;
41643;SDS011;44236;48.098;11.582;2024-03-08T00:49:59;5.85;;;3.75;;
41643;SDS011;44236;48.098;11.582;2024-03-08T00:52:24;8.57;;;3.97;;
41643;SDS011;44236;48.098;11.582;2024-03-08T00:54:50;6.53;;;3.83;;
41643;SDS011;44236;48.098;11.582;2024-03-08T00:57:15;7.07;;;4.05;;
41643;SDS011;44236;48.098;11.582;2024-03-08T00:59:41;6.65;;;3.80;;
41643;SDS011;44236;48.098;11.582;2024-03-08T01:02:07;5.88;;;3.60;;
41643;SDS011;44236;48.098;11.582;2024-03-08T01:04:36;8.13;;;3.88;;
41643;SDS011;44236;48.098;11.582;2024-03-08T01:07:01;8.23;;;4.25;;
41643;SDS011;44236;48.098;11.582;2024-03-08T01:09:27;7.65;;;3.85;;
41643;SDS011;44236;48.098;11.582;2024-03-08T01:11:53;6.40;;;4.00;;
41643;SDS011;44236;48.098;11.582;2024-03-08T01:14:20;6.60;;;3.58;;
41643;SDS011;44236;48.098;11.582;2024-03-08T01:16:55;6.13;;;3.83;;
41643;SDS011;44236;48.098;11.582;2024-03-08T01:19:20;6.97;;;4.65;;
41643;SDS011;44236;48.098;11.582;2024-03-08T01:21:46;6.28;;;3.70;;
41643;SDS011;44236;48.098;11.582;2024-03-08T01:24:11;6.53;;;4.22;;
41643;SDS011;44236;48.098;11.582;2024-03-08T01:26:37;7.95;;;4.30;;
41643;SDS011;44236;48.098;11.582;2024-03-08T01:29:03;6.38;;;4.05;;
41643;SDS011;44236;48.098;11.582;2024-03-08T01:31:29;6.68;;;4.18;;
41643;SDS011;44236;48.098;11.582;2024-03-08T01:33:56;5.55;;;3.85;;
41643;SDS011;44236;48.098;11.582;2024-03-08T01:36:21;5.95;;;4.00;;
41643;SDS011;44236;48.098;11.582;2024-03-08T01:38:48;6.03;;;3.88;;
41643;SDS011;44236;48.098;11.582;2024-03-08T01:41:14;8.40;;;3.90;;
41643;SDS011;44236;48.098;11.582;2024-03-08T01:43:41;6.07;;;4.00;;
41643;SDS011;44236;48.098;11.582;2024-03-08T01:46:07;7.68;;;3.92;;
41643;SDS011;44236;48.098;11.582;2024-03-08T01:48:34;5.97;;;3.70;;
41643;SDS011;44236;48.098;11.582;2024-03-08T01:51:00;6.15;;;4.18;;
41643;SDS011;44236;48.098;11.582;2024-03-08T01:53:26;7.57;;;4.50;;
41643;SDS011;44236;48.098;11.582;2024-03-08T01:55:54;7.22;;;4.22;;
41643;SDS011;44236;48.098;11.582;2024-03-08T01:58:22;6.95;;;4.13;;
41643;SDS011;44236;48.098;11.582;2024-03-08T02:00:48;6.00;;;3.88;;
41643;SDS011;44236;48.098;11.582;2024-03-08T02:03:15;6.40;;;4.07;;
41643;SDS011;44236;48.098;11.582;2024-03-08T02:05:41;7.68;;;4.00;;
41643;SDS011;44236;48.098;11.582;2024-03-08T02:08:07;6.90;;;4.07;;
41643;SDS011;44236;48.098;11.582;2024-03-08T02:10:37;5.55;;;3.33;;
41643;SDS011;44236;48.098;11.582;2024-03-08T02:13:03;7.13;;;4.18;;
41643;SDS011;44236;48.098;11.582;2024-03-08T02:18:21;7.10;;;4.18;;
41643;SDS011;44236;48.098;11.582;2024-03-08T02:20:58;6.53;;;4.25;;
41643;SDS011;44236;48.098;11.582;2024-03-08T02:23:24;7.82;;;3.97;;
41643;SDS011;44236;48.098;11.582;2024-03-08T02:25:51;6.35;;;3.53;;
41643;SDS011;44236;48.098;11.582;2024-03-08T02:28:18;6.85;;;4.03;;
41643;SDS011;44236;48.098;11.582;2024-03-08T02:30:45;7.13;;;4.18;;
41643;SDS011;44236;48.098;11.582;2024-03-08T02:33:13;6.80;;;3.95;;
41643;SDS011;44236;48.098;11.582;2024-03-08T02:35:45;6.95;;;3.63;;
41643;SDS011;44236;48.098;11.582;2024-03-08T02:38:17;7.07;;;3.78;;
41643;SDS011;44236;48.098;11.582;2024-03-08T02:40:45;7.00;;;4.63;;
41643;SDS011;44236;48.098;11.582;2024-03-08T02:43:12;5.47;;;3.35;;
41643;SDS011;44236;48.098;11.582;2024-03-08T02:45:42;7.50;;;4.40;;
41643;SDS011;44236;48.098;11.582;2024-03-08T02:48:09;10.45;;;4.22;;
41643;SDS011;44236;48.098;11.582;2024-03-08T02:50:34;6.82;;;4.15;;
41643;SDS011;44236;48.098;11.582;2024-03-08T02:53:01;6.07;;;3.80;;
41643;SDS011;44236;48.098;11.582;2024-03-08T02:55:27;6.47;;;4.20;;
41643;SDS011;44236;48.098;11.582;2024-03-08T02:57:53;6.38;;;3.78;;
41643;SDS011;44236;48.098;11.582;2024-03-08T03:00:21;5.65;;;3.53;;
41643;SDS011;44236;48.098;11.582;2024-03-08T03:02:51;7.32;;;4.00;;
41643;SDS011;44236;48.098;11.582;2024-03-08T03:05:20;6.72;;;4.03;;
41643;SDS011;44236;48.098;11.582;2024-03-08T03:07:46;6.18;;;3.92;;
41643;SDS011;44236;48.098;11.582;2024-03-08T03:10:12;6.72;;;3.95;;
41643;SDS011;44236;48.098;11.582;2024-03-08T03:12:41;6.68;;;3.97;;
41643;SDS011;44236;48.098;11.582;2024-03-08T03:15:08;6.85;;;3.75;;
41643;SDS011;44236;48.098;11.582;2024-03-08T03:17:33;6.40;;;3.70;;
41643;SDS011;44236;48.098;11.582;2024-03-08T03:19:59;6.03;;;3.67;;
41643;SDS011;44236;48.098;11.582;2024-03-08T03:22:30;5.65;;;3.83;;
41643;SDS011;44236;48.098;11.582;2024-03-08T03:24:55;5.95;;;3.70;;
41643;SDS011;44236;48.098;11.582;2024-03-08T03:27:23;5.28;;;3.35;;
41643;SDS011;44236;48.098;11.582;2024-03-08T03:29:49;6.13;;;3.72;;
41643;SDS011;44236;48.098;11.582;2024-03-08T03:32:17;7.53;;;3.58;;
41643;SDS011;44236;48.098;11.582;2024-03-08T03:34:43;5.45;;;3.00;;
41643;SDS011;44236;48.098;11.582;2024-03-08T03:37:09;8.07;;;4.13;;
41643;SDS011;44236;48.098;11.582;2024-03-08T03:39:38;6.38;;;3.65;;
41643;SDS011;44236;48.098;11.582;2024-03-08T03:42:17;6.22;;;3.83;;
41643;SDS011;44236;48.098;11.582;2024-03-08T03:44:44;8.60;;;4.28;;
41643;SDS011;44236;48.098;11.582;2024-03-08T03:47:10;5.82;;;3.50;;
41643;SDS011;44236;48.098;11.582;2024-03-08T03:49:36;5.25;;;3.15;;
41643;SDS011;44236;48.098;11.582;2024-03-08T03:52:02;7.10;;;4.32;;
41643;SDS011;44236;48.098;11.582;2024-03-08T03:54:29;5.25;;;3.35;;
41643;SDS011;44236;48.098;11.582;2024-03-08T03:56:55;8.07;;;4.03;;
41643;SDS011;44236;48.098;11.582;2024-03-08T03:59:21;7.50;;;4.03;;
41643;SDS011;44236;48.098;11.582;2024-03-08T04:01:47;8.60;;;4.15;;
41643;SDS011;44236;48.098;11.582;2024-03-08T04:04:14;6.35;;;3.65;;
41643;SDS011;44236;48.098;11.582;2024-03-08T04:06:40;7.20;;;3.60;;
41643;SDS011;44236;48.098;11.582;2024-03-08T04:09:06;6.00;;;3.42;;
41643;SDS011;44236;48.098;11.582;2024-03-08T04:11:32;6.50;;;3.58;;
41643;SDS011;44236;48.098;11.582;2024-03-08T04:13:57;8.10;;;4.55;;
41643;SDS011;44236;48.098;11.582;2024-03-08T04:16:23;5.47;;;3.22;;
41643;SDS011;44236;48.098;11.582;2024-03-08T04:18:49;6.40;;;3.70;;
41643;SDS011;44236;48.098;11.582;2024-03-08T04:21:15;7.00;;;4.20;;
41643;SDS011;44236;48.098;11.582;2024-03-08T04:23:40;6.20;;;3.65;;
41643;SDS011;44236;48.098;11.582;2024-03-08T04:26:06;6.40;;;3.92;;
41643;SDS011;44236;48.098;11.582;2024-03-08T04:28:33;6.35;;;3.65;;
41643;SDS011;44236;48.098;11.582;2024-03-08T04:30:59;7.30;;;4.00;;
41643;SDS011;44236;48.098;11.582;2024-03-08T04:33:28;6.03;;;3.95;;
41643;SDS011;44236;48.098;11.582;2024-03-08T04:35:54;8.70;;;4.45;;
41643;SDS011;44236;48.098;11.582;2024-03-08T04:38:19;6.57;;;3.70;;
41643;SDS011;44236;48.098;11.582;2024-03-08T04:40:45;5.65;;;3.75;;
41643;SDS011;44236;48.098;11.582;2024-03-08T04:43:11;6.72;;;4.03;;
41643;SDS011;44236;48.098;11.582;2024-03-08T04:45:37;5.65;;;3.72;;
41643;SDS011;44236;48.098;11.582;2024-03-08T04:48:03;6.15;;;3.63;;
41643;SDS011;44236;48.098;11.582;2024-03-08T04:50:28;6.25;;;4.07;;
41643;SDS011;44236;48.098;11.582;2024-03-08T04:52:54;7.43;;;3.75;;
41643;SDS011;44236;48.098;11.582;2024-03-08T04:55:20;5.80;;;3.78;;
41643;SDS011;44236;48.098;11.582;2024-03-08T04:57:47;6.60;;;4.00;;
41643;SDS011;44236;48.098;11.582;2024-03-08T05:00:13;5.65;;;3.83;;
41643;SDS011;44236;48.098;11.582;2024-03-08T05:02:40;5.80;;;3.83;;
41643;SDS011;44236;48.098;11.582;2024-03-08T05:05:06;5.13;;;3.40;;
41643;SDS011;44236;48.098;11.582;2024-03-08T05:07:37;6.70;;;4.00;;
41643;SDS011;44236;48.098;11.582;2024-03-08T05:10:06;8.52;;;3.72;;
41643;SDS011;44236;48.098;11.582;2024-03-08T05:12:33;8.75;;;4.15;;
41643;SDS011;44236;48.098;11.582;2024-03-08T05:14:58;7.10;;;3.90;;
41643;SDS011;44236;48.098;11.582;2024-03-08T05:17:25;8.68;;;4.00;;
41643;SDS011;44236;48.098;11.582;2024-03-08T05:19:51;5.65;;;3.67;;
41643;SDS011;44236;48.098;11.582;2024-03-08T05:22:16;5.40;;;3.78;;
41643;SDS011;44236;48.098;11.582;2024-03-08T05:24:43;6.38;;;3.97;;
41643;SDS011;44236;48.098;11.582;2024-03-08T05:27:09;6.03;;;3.65;;
41643;SDS011;44236;48.098;11.582;2024-03-08T05:29:34;6.22;;;3.47;;
41643;SDS011;44236;48.098;11.582;2024-03-08T05:32:00;7.72;;;4.45;;
41643;SDS011;44236;48.098;11.582;2024-03-08T05:34:27;11.43;;;4.00;;
41643;SDS011;44236;48.098;11.582;2024-03-08T05:36:53;7.18;;;4.03;;
41643;SDS011;44236;48.098;11.582;2024-03-08T05:39:19;6.78;;;4.20;;
41643;SDS011;44236;48.098;11.582;2024-03-08T05:41:45;6.93;;;3.58;;
41643;SDS011;44236;48.098;11.582;2024-03-08T05:44:11;8.30;;;5.07;;
41643;SDS011;44236;48.098;11.582;2024-03-08T05:46:38;7.15;;;4.03;;
41643;SDS011;44236;48.098;11.582;2024-03-08T05:49:04;6.30;;;3.92;;
41643;SDS011;44236;48.098;11.582;2024-03-08T05:51:40;6.50;;;3.83;;
41643;SDS011;44236;48.098;11.582;2024-03-08T05:54:10;7.30;;;4.18;;
41643;SDS011;44236;48.098;11.582;2024-03-08T05:56:37;7.80;;;4.03;;
41643;SDS011;44236;48.098;11.582;2024-03-08T05:59:03;6.05;;;3.80;;
41643;SDS011;44236;48.098;11.582;2024-03-08T06:01:29;9.48;;;3.95;;
41643;SDS011;44236;48.098;11.582;2024-03-08T06:03:56;7.40;;;4.10;;
41643;SDS011;44236;48.098;11.582;2024-03-08T06:06:22;28.20;;;4.68;;
41643;SDS011;44236;48.098;11.582;2024-03-08T06:08:48;8.57;;;3.80;;
41643;SDS011;44236;48.098;11.582;2024-03-08T06:11:14;9.13;;;3.90;;
41643;SDS011;44236;48.098;11.582;2024-03-08T06:13:42;14.40;;;4.13;;
41643;SDS011;44236;48.098;11.582;2024-03-08T06:16:08;7.15;;;3.92;;
41643;SDS011;44236;48.098;11.582;2024-03-08T06:18:34;8.32;;;3.92;;
41643;SDS011;44236;48.098;11.582;2024-03-08T06:21:04;7.47;;;3.95;;
41643;SDS011;44236;48.098;11.582;2024-03-08T06:23:33;8.52;;;3.42;;
41643;SDS011;44236;48.098;11.582;2024-03-08T06:25:59;6.53;;;4.03;;
41643;SDS011;44236;48.098;11.582;2024-03-08T06:28:25;8.25;;;3.75;;
41643;SDS011;44236;48.098;11.582;2024-03-08T06:30:51;6.68;;;4.03;;
41643;SDS011;44236;48.098;11.582;2024-03-08T06:33:17;6.60;;;4.00;;
41643;SDS011;44236;48.098;11.582;2024-03-08T06:35:43;8.27;;;4.10;;
41643;SDS011;44236;48.098;11.582;2024-03-08T06:38:08;6.82;;;3.88;;
41643;SDS011;44236;48.098;11.582;2024-03-08T06:40:34;7.20;;;4.20;;
41643;SDS011;44236;48.098;11.582;2024-03-08T06:43:00;7.03;;;3.83;;
41643;SDS011;44236;48.098;11.582;2024-03-08T06:45:26;6.15;;;3.83;;
41643;SDS011;44236;48.098;11.582;2024-03-08T06:47:51;11.75;;;4.47;;
41643;SDS011;44236;48.098;11.582;2024-03-08T06:50:17;6.72;;;4.38;;
41643;SDS011;44236;48.098;11.582;2024-03-08T06:52:42;6.65;;;4.00;;
41643;SDS011;44236;48.098;11.582;2024-03-08T06:55:09;9.73;;;4.85;;
41643;SDS011;44236;48.098;11.582;2024-03-08T06:57:40;7.72;;;4.25;;
41643;SDS011;44236;48.098;11.582;2024-03-08T07:00:09;9.07;;;4.07;;
41643;SDS011;44236;48.098;11.582;2024-03-08T07:02:37;9.82;;;4.40;;
41643;SDS011;44236;48.098;11.582;2024-03-08T07:05:05;8.63;;;4.00;;
41643;SDS011;44236;48.098;11.582;2024-03-08T07:07:31;8.82;;;4.75;;
41643;SDS011;44236;48.098;11.582;2024-03-08T07:09:58;8.73;;;4.18;;
41643;SDS011;44236;48.098;11.582;2024-03-08T07:12:24;9.32;;;3.67;;
41643;SDS011;44236;48.098;11.582;2024-03-08T07:14:51;7.80;;;4.63;;
41643;SDS011;44236;48.098;11.582;2024-03-08T07:17:16;8.43;;;4.70;;
41643;SDS011;44236;48.098;11.582;2024-03-08T07:19:42;6.90;;;3.90;;
41643;SDS011;44236;48.098;11.582;2024-03-08T07:22:08;6.43;;;3.40;;
41643;SDS011;44236;48.098;11.582;2024-03-08T07:24:37;10.88;;;4.25;;
41643;SDS011;44236;48.098;11.582;2024-03-08T07:27:25;6.95;;;4.13;;
41643;SDS011;44236;48.098;11.582;2024-03-08T07:29:50;10.10;;;4.25;;
41643;SDS011;44236;48.098;11.582;2024-03-08T07:32:17;13.02;;;5.07;;
41643;SDS011;44236;48.098;11.582;2024-03-08T07:34:50;18.13;;;6.18;;
41643;SDS011;44236;48.098;11.582;2024-03-08T07:37:17;16.80;;;6.85;;
41643;SDS011;44236;48.098;11.582;2024-03-08T07:39:44;15.23;;;7.47;;
41643;SDS011;44236;48.098;11.582;2024-03-08T07:42:09;14.32;;;7.05;;
41643;SDS011;44236;48.098;11.582;2024-03-08T07:44:36;15.50;;;6.43;;
41643;SDS011;44236;48.098;11.582;2024-03-08T07:47:03;12.77;;;6.35;;
41643;SDS011;44236;48.098;11.582;2024-03-08T07:49:29;14.85;;;6.72;;
41643;SDS011;44236;48.098;11.582;2024-03-08T07:51:55;12.90;;;6.15;;
41643;SDS011;44236;48.098;11.582;2024-03-08T07:54:21;12.80;;;6.03;;
41643;SDS011;44236;48.098;11.582;2024-03-08T07:56:47;12.40;;;5.72;;
41643;SDS011;44236;48.098;11.582;2024-03-08T07:59:12;8.35;;;5.32;;
41643;SDS011;44236;48.098;11.582;2024-03-08T08:01:38;10.70;;;5.53;;
41643;SDS011;44236;48.098;11.582;2024-03-08T08:04:03;11.40;;;5.85;;
41643;SDS011;44236;48.098;11.582;2024-03-08T08:06:30;9.43;;;5.25;;
41643;SDS011;44236;48.098;11.582;2024-03-08T08:08:58;9.75;;;6.00;;
41643;SDS011;44236;48.098;11.582;2024-03-08T08:11:27;13.20;;;6.20;;
41643;SDS011;44236;48.098;11.582;2024-03-08T08:13:53;8.43;;;5.38;;
41643;SDS011;44236;48.098;11.582;2024-03-08T08:16:20;9.45;;;5.32;;
41643;SDS011;44236;48.098;11.582;2024-03-08T08:18:47;9.48;;;5.28;;
41643;SDS011;44236;48.098;11.582;2024-03-08T08:21:13;9.30;;;4.95;;
41643;SDS011;44236;48.098;11.582;2024-03-08T08:23:39;11.93;;;5.50;;
41643;SDS011;44236;48.098;11.582;2024-03-08T08:26:05;10.75;;;6.05;;
41643;SDS011;44236;48.098;11.582;2024-03-08T08:28:32;8.57;;;5.22;;
41643;SDS011;44236;48.098;11.582;2024-03-08T08:30:58;9.88;;;5.38;;
41643;SDS011;44236;48.098;11.582;2024-03-08T08:33:24;7.32;;;4.75;;
41643;SDS011;44236;48.098;11.582;2024-03-08T08:35:50;8.80;;;5.03;;
41643;SDS011;44236;48.098;11.582;2024-03-08T08:38:19;9.48;;;4.82;;
41643;SDS011;44236;48.098;11.582;2024-03-08T08:40:45;8.18;;;4.68;;
41643;SDS011;44236;48.098;11.582;2024-03-08T08:43:12;9.30;;;5.00;;
41643;SDS011;44236;48.098;11.582;2024-03-08T08:45:38;9.38;;;5.38;;
41643;SDS011;44236;48.098;11.582;2024-03-08T08:48:04;8.20;;;5.10;;
41643;SDS011;44236;48.098;11.582;2024-03-08T08:50:30;7.28;;;4.78;;
41643;SDS011;44236;48.098;11.582;2024-03-08T08:52:58;7.93;;;4.57;;
41643;SDS011;44236;48.098;11.582;2024-03-08T08:55:24;8.20;;;4.97;;
41643;SDS011;44236;48.098;11.582;2024-03-08T08:57:50;8.38;;;5.03;;
41643;SDS011;44236;48.098;11.582;2024-03-08T09:00:17;8.65;;;4.95;;
41643;SDS011;44236;48.098;11.582;2024-03-08T09:02:46;9.18;;;4.50;;
41643;SDS011;44236;48.098;11.582;2024-03-08T09:05:13;7.88;;;5.05;;
41643;SDS011;44236;48.098;11.582;2024-03-08T09:07:45;6.88;;;4.45;;
41643;SDS011;44236;48.098;11.582;2024-03-08T09:10:10;6.82;;;4.07;;
41643;SDS011;44236;48.098;11.582;2024-03-08T09:12:39;7.45;;;4.35;;
41643;SDS011;44236;48.098;11.582;2024-03-08T09:15:05;7.15;;;4.30;;
41643;SDS011;44236;48.098;11.582;2024-03-08T09:17:33;7.20;;;4.25;;
41643;SDS011;44236;48.098;11.582;2024-03-08T09:19:59;8.50;;;4.35;;
41643;SDS011;44236;48.098;11.582;2024-03-08T09:22:25;8.10;;;4.35;;
41643;SDS011;44236;48.098;11.582;2024-03-08T09:24:51;7.15;;;4.80;;
41643;SDS011;44236;48.098;11.582;2024-03-08T09:27:16;8.05;;;4.10;;
41643;SDS011;44236;48.098;11.582;2024-03-08T09:29:43;9.23;;;4.60;;
41643;SDS011;44236;48.098;11.582;2024-03-08T09:32:09;6.70;;;3.65;;
41643;SDS011;44236;48.098;11.582;2024-03-08T09:34:36;6.75;;;4.53;;
41643;SDS011;44236;48.098;11.582;2024-03-08T09:37:02;6.78;;;4.07;;
41643;SDS011;44236;48.098;11.582;2024-03-08T09:39:29;6.90;;;4.28;;
41643;SDS011;44236;48.098;11.582;2024-03-08T09:41:55;6.88;;;4.15;;
41643;SDS011;44236;48.098;11.582;2024-03-08T09:44:21;6.43;;;4.20;;
41643;SDS011;44236;48.098;11.582;2024-03-08T09:46:48;5.82;;;3.70;;
41643;SDS011;44236;48.098;11.582;2024-03-08T09:49:18;7.43;;;4.30;;
41643;SDS011;44236;48.098;11.582;2024-03-08T09:51:44;6.75;;;3.97;;
41643;SDS011;44236;48.098;11.582;2024-03-08T09:54:11;7.75;;;4.07;;
41643;SDS011;44236;48.098;11.582;2024-03-08T09:56:37;8.00;;;3.85;;
41643;SDS011;44236;48.098;11.582;2024-03-08T09:59:09;6.75;;;4.00;;
41643;SDS011;44236;48.098;11.582;2024-03-08T10:01:53;6.03;;;3.95;;
41643;SDS011;44236;48.098;11.582;2024-03-08T10:04:21;6.75;;;4.38;;
41643;SDS011;44236;48.098;11.582;2024-03-08T10:06:47;6.97;;;4.43;;
41643;SDS011;44236;48.098;11.582;2024-03-08T10:09:13;7.95;;;4.22;;
41643;SDS011;44236;48.098;11.582;2024-03-08T10:11:41;7.65;;;3.75;;
41643;SDS011;44236;48.098;11.582;2024-03-08T10:14:07;7.03;;;4.03;;
41643;SDS011;44236;48.098;11.582;2024-03-08T10:16:34;7.45;;;4.20;;
41643;SDS011;44236;48.098;11.582;2024-03-08T10:19:00;6.68;;;4.28;;
41643;SDS011;44236;48.098;11.582;2024-03-08T10:21:26;8.35;;;4.05;;
41643;SDS011;44236;48.098;11.582;2024-03-08T10:23:52;6.63;;;4.25;;
41643;SDS011;44236;48.098;11.582;2024-03-08T10:26:18;5.70;;;3.75;;
41643;SDS011;44236;48.098;11.582;2024-03-08T10:28:50;10.88;;;4.35;;
41643;SDS011;44236;48.098;11.582;2024-03-08T10:31:18;5.28;;;3.83;;
41643;SDS011;44236;48.098;11.582;2024-03-08T10:33:45;5.93;;;3.90;;
41643;SDS011;44236;48.098;11.582;2024-03-08T10:36:12;6.68;;;4.22;;
41643;SDS011;44236;48.098;11.582;2024-03-08T10:38:40;6.90;;;4.03;;
41643;SDS011;44236;48.098;11.582;2024-03-08T10:41:07;6.25;;;3.75;;
41643;SDS011;44236;48.098;11.582;2024-03-08T10:46:36;7.13;;;4.57;;
41643;SDS011;44236;48.098;11.582;2024-03-08T10:49:16;6.57;;;4.32;;
41643;SDS011;44236;48.098;11.582;2024-03-08T10:51:42;6.10;;;3.70;;
41643;SDS011;44236;48.098;11.582;2024-03-08T10:54:09;7.05;;;4.55;;
41643;SDS011;44236;48.098;11.582;2024-03-08T10:56:36;6.30;;;4.07;;
41643;SDS011;44236;48.098;11.582;2024-03-08T10:59:04;6.85;;;4.07;;
41643;SDS011;44236;48.098;11.582;2024-03-08T11:01:33;6.50;;;4.10;;
41643;SDS011;44236;48.098;11.582;2024-03-08T11:03:59;6.63;;;4.00;;
41643;SDS011;44236;48.098;11.582;2024-03-08T11:06:30;6.15;;;3.67;;
41643;SDS011;44236;48.098;11.582;2024-03-08T11:08:56;6.05;;;3.58;;
41643;SDS011;44236;48.098;11.582;2024-03-08T11:11:27;6.30;;;3.70;;
41643;SDS011;44236;48.098;11.582;2024-03-08T11:13:57;5.82;;;3.60;;
41643;SDS011;44236;48.098;11.582;2024-03-08T11:19:00;5.50;;;3.55;;
41643;SDS011;44236;48.098;11.582;2024-03-08T11:21:31;5.72;;;3.38;;
41643;SDS011;44236;48.098;11.582;2024-03-08T11:23:59;6.70;;;3.88;;
41643;SDS011;44236;48.098;11.582;2024-03-08T11:26:25;5.53;;;3.70;;
41643;SDS011;44236;48.098;11.582;2024-03-08T11:28:50;6.22;;;4.40;;
41643;SDS011;44236;48.098;11.582;2024-03-08T11:33:46;6.80;;;3.88;;
41643;SDS011;44236;48.098;11.582;2024-03-08T11:36:14;6.63;;;3.58;;
41643;SDS011;44236;48.098;11.582;2024-03-08T11:38:47;7.63;;;3.53;;
41643;SDS011;44236;48.098;11.582;2024-03-08T11:41:18;5.88;;;2.83;;
41643;SDS011;44236;48.098;11.582;2024-03-08T11:43:46;5.10;;;3.20;;
41643;SDS011;44236;48.098;11.582;2024-03-08T11:46:12;4.80;;;2.88;;
41643;SDS011;44236;48.098;11.582;2024-03-08T11:48:39;5.78;;;3.50;;
41643;SDS011;44236;48.098;11.582;2024-03-08T11:51:10;6.00;;;3.72;;
41643;SDS011;44236;48.098;11.582;2024-03-08T11:53:37;11.43;;;3.80;;
41643;SDS011;44236;48.098;11.582;2024-03-08T11:56:13;5.28;;;3.30;;
41643;SDS011;44236;48.098;11.582;2024-03-08T11:58:39;5.00;;;3.53;;
41643;SDS011;44236;48.098;11.582;2024-03-08T12:01:06;5.60;;;3.20;;
41643;SDS011;44236;48.098;11.582;2024-03-08T12:03:34;6.22;;;4.05;;
41643;SDS011;44236;48.098;11.582;2024-03-08T12:06:00;6.95;;;3.58;;
41643;SDS011;44236;48.098;11.582;2024-03-08T12:08:27;5.53;;;3.15;;
41643;SDS011;44236;48.098;11.582;2024-03-08T12:10:57;6.22;;;3.78;;
41643;SDS011;44236;48.098;11.582;2024-03-08T12:13:26;7.00;;;3.50;;
41643;SDS011;44236;48.098;11.582;2024-03-08T12:15:55;4.93;;;3.25;;
41643;SDS011;44236;48.098;11.582;2024-03-08T12:18:23;5.90;;;3.42;;
41643;SDS011;44236;48.098;11.582;2024-03-08T12:20:49;4.40;;;2.90;;
41643;SDS011;44236;48.098;11.582;2024-03-08T12:23:15;4.63;;;3.15;;
41643;SDS011;44236;48.098;11.582;2024-03-08T12:25:41;6.28;;;3.50;;
41643;SDS011;44236;48.098;11.582;2024-03-08T12:28:08;6.32;;;3.70;;
41643;SDS011;44236;48.098;11.582;2024-03-08T12:30:48;5.93;;;3.80;;
41643;SDS011;44236;48.098;11.582;2024-03-08T12:33:16;5.72;;;3.90;;
41643;SDS011;44236;48.098;11.582;2024-03-08T12:35:49;6.13;;;3.72;;
41643;SDS011;44236;48.098;11.582;2024-03-08T12:38:18;6.55;;;3.65;;
41643;SDS011;44236;48.098;11.582;2024-03-08T12:40:49;5.03;;;2.97;;
41643;SDS011;44236;48.098;11.582;2024-03-08T12:43:15;5.68;;;3.40;;
41643;SDS011;44236;48.098;11.582;2024-03-08T12:45:41;5.75;;;3.63;;
41643;SDS011;44236;48.098;11.582;2024-03-08T12:48:12;6.82;;;3.60;;
41643;SDS011;44236;48.098;11.582;2024-03-08T12:50:41;5.13;;;3.35;;
41643;SDS011;44236;48.098;11.582;2024-03-08T12:53:12;5.57;;;3.67;;
41643;SDS011;44236;48.098;11.582;2024-03-08T12:55:38;5.82;;;3.53;;
41643;SDS011;44236;48.098;11.582;2024-03-08T12:58:05;6.22;;;3.40;;
41643;SDS011;44236;48.098;11.582;2024-03-08T13:00:32;4.88;;;3.28;;
41643;SDS011;44236;48.098;11.582;2024-03-08T13:03:01;5.68;;;3.70;;
41643;SDS011;44236;48.098;11.582;2024-03-08T13:05:27;6.00;;;3.85;;
41643;SDS011;44236;48.098;11.582;2024-03-08T13:07:53;4.95;;;3.40;;
41643;SDS011;44236;48.098;11.582;2024-03-08T13:10:19;5.25;;;3.50;;
41643;SDS011;44236;48.098;11.582;2024-03-08T13:12:45;5.78;;;4.18;;
41643;SDS011;44236;48.098;11.582;2024-03-08T13:15:12;6.05;;;3.65;;
41643;SDS011;44236;48.098;11.582;2024-03-08T13:17:45;5.20;;;3.15;;
41643;SDS011;44236;48.098;11.582;2024-03-08T13:20:13;5.10;;;3.22;;
41643;SDS011;44236;48.098;11.582;2024-03-08T13:22:43;5.97;;;3.60;;
41643;SDS011;44236;48.098;11.582;2024-03-08T13:25:08;5.68;;;4.03;;
41643;SDS011;44236;48.098;11.582;2024-03-08T13:27:41;5.40;;;3.40;;
41643;SDS011;44236;48.098;11.582;2024-03-08T13:30:08;5.63;;;3.72;;
41643;SDS011;44236;48.098;11.582;2024-03-08T13:32:38;5.88;;;3.90;;
41643;SDS011;44236;48.098;11.582;2024-03-08T13:35:08;6.13;;;3.58;;
41643;SDS011;44236;48.098;11.582;2024-03-08T13:37:40;8.15;;;3.90;;
41643;SDS011;44236;48.098;11.582;2024-03-08T13:40:06;5.80;;;3.95;;
41643;SDS011;44236;48.098;11.582;2024-03-08T13:42:39;7.85;;;3.83;;
41643;SDS011;44236;48.098;11.582;2024-03-08T13:45:07;6.15;;;3.50;;
41643;SDS011;44236;48.098;11.582;2024-03-08T13:47:36;15.75;;;8.15;;
41643;SDS011;44236;48.098;11.582;2024-03-08T13:50:04;14.15;;;9.05;;
41643;SDS011;44236;48.098;11.582;2024-03-08T13:52:32;14.35;;;8.07;;
41643;SDS011;44236;48.098;11.582;2024-03-08T13:54:59;11.55;;;7.82;;
41643;SDS011;44236;48.098;11.582;2024-03-08T13:57:25;10.43;;;7.28;;
41643;SDS011;44236;48.098;11.582;2024-03-08T13:59:52;10.52;;;7.05;;
41643;SDS011;44236;48.098;11.582;2024-03-08T14:02:18;8.35;;;5.65;;
41643;SDS011;44236;48.098;11.582;2024-03-08T14:04:43;7.88;;;5.38;;
41643;SDS011;44236;48.098;11.582;2024-03-08T14:07:09;8.52;;;5.80;;
41643;SDS011;44236;48.098;11.582;2024-03-08T14:09:36;8.27;;;5.22;;
41643;SDS011;44236;48.098;11.582;2024-03-08T14:12:02;11.25;;;5.82;;
41643;SDS011;44236;48.098;11.582;2024-03-08T14:14:32;9.27;;;5.45;;
41643;SDS011;44236;48.098;11.582;2024-03-08T14:17:00;7.18;;;4.28;;
41643;SDS011;44236;48.098;11.582;2024-03-08T14:19:29;9.57;;;4.72;;
41643;SDS011;44236;48.098;11.582;2024-03-08T14:21:58;8.18;;;4.72;;
41643;SDS011;44236;48.098;11.582;2024-03-08T14:24:24;9.70;;;4.55;;
41643;SDS011;44236;48.098;11.582;2024-03-08T14:26:50;7.28;;;4.70;;
41643;SDS011;44236;48.098;11.582;2024-03-08T14:29:16;7.90;;;4.35;;
41643;SDS011;44236;48.098;11.582;2024-03-08T14:31:45;6.97;;;4.50;;
41643;SDS011;44236;48.098;11.582;2024-03-08T14:34:11;11.40;;;4.38;;
41643;SDS011;44236;48.098;11.582;2024-03-08T14:36:39;8.60;;;3.83;;
41643;SDS011;44236;48.098;11.582;2024-03-08T14:39:05;7.88;;;4.78;;
41643;SDS011;44236;48.098;11.582;2024-03-08T14:41:32;6.45;;;4.00;;
41643;SDS011;44236;48.098;11.582;2024-03-08T14:43:58;8.10;;;3.70;;